createdAt,value
2019-01-17T00:02:31.568Z,5.10
2019-01-17T00:05:34.619Z,5.10
2019-01-17T00:08:15.932Z,5.10
2019-01-17T00:11:02.609Z,5.20
2019-01-17T00:13:59.741Z,5.20
2019-01-17T00:16:43.680Z,5.20
2019-01-17T00:19:44.149Z,5.20
2019-01-17T00:22:40.002Z,5.20
2019-01-17T00:25:26.701Z,5.20
2019-01-17T00:28:13.544Z,5.20
2019-01-17T00:30:50.659Z,5.20
2019-01-17T00:33:53.790Z,5.20
2019-01-17T00:36:53.755Z,5.20
2019-01-17T00:39:39.021Z,5.30
2019-01-17T00:42:21.715Z,5.20
2019-01-17T00:45:14.170Z,5.20
2019-01-17T00:48:03.780Z,5.20
2019-01-17T00:50:50.464Z,5.20
2019-01-17T00:53:30.613Z,5.20
2019-01-17T00:56:07.768Z,5.10
2019-01-17T00:59:08.889Z,5.10
2019-01-17T01:02:01.888Z,5.10
2019-01-17T01:04:46.268Z,5.00
2019-01-17T01:07:40.601Z,5.00
2019-01-17T01:10:32.680Z,4.90
2019-01-17T01:13:19.153Z,4.90
2019-01-17T01:16:10.992Z,4.80
2019-01-17T01:18:52.446Z,4.80
2019-01-17T01:21:56.665Z,4.80
2019-01-17T01:24:46.224Z,4.80
2019-01-17T01:27:32.304Z,4.70
2019-01-17T01:30:26.136Z,4.70
2019-01-17T01:33:07.560Z,4.70
2019-01-17T01:35:57.665Z,4.70
2019-01-17T01:38:44.283Z,4.80
2019-01-17T01:41:32.260Z,4.70
2019-01-17T01:44:18.713Z,4.70
2019-01-17T01:47:05.899Z,4.70
2019-01-17T01:50:03.264Z,4.70
2019-01-17T01:53:02.545Z,4.70
2019-01-17T01:55:31.410Z,4.70
2019-01-17T01:58:00.100Z,4.70
2019-01-17T02:00:28.946Z,4.70
2019-01-17T02:02:58.017Z,4.70
2019-01-17T02:05:27.359Z,4.70
2019-01-17T02:07:56.380Z,4.80
2019-01-17T02:10:25.501Z,4.70
2019-01-17T02:12:54.448Z,4.70
2019-01-17T02:15:23.435Z,4.80
2019-01-17T02:17:53.688Z,4.80
2019-01-17T02:20:22.407Z,4.80
2019-01-17T02:22:51.456Z,4.80
2019-01-17T02:25:20.474Z,4.80
2019-01-17T02:27:49.173Z,4.80
2019-01-17T02:30:17.989Z,4.80
2019-01-17T02:32:46.726Z,4.80
2019-01-17T02:35:15.539Z,4.70
2019-01-17T02:37:44.478Z,4.70
2019-01-17T02:40:13.566Z,4.70
2019-01-17T02:42:42.300Z,4.70
2019-01-17T02:45:13.294Z,4.70
2019-01-17T02:47:42.393Z,4.70
2019-01-17T02:50:11.450Z,4.60
2019-01-17T02:52:40.561Z,4.60
2019-01-17T02:55:10.306Z,4.50
2019-01-17T02:57:58.506Z,4.50
2019-01-17T03:00:27.456Z,4.50
2019-01-17T03:02:56.185Z,4.50
2019-01-17T03:05:25.200Z,4.40
2019-01-17T03:07:54.296Z,4.40
2019-01-17T03:10:23.373Z,4.50
2019-01-17T03:12:52.377Z,4.50
2019-01-17T03:15:21.094Z,4.40
2019-01-17T03:17:50.126Z,4.40
2019-01-17T03:20:18.989Z,4.40
2019-01-17T03:22:47.718Z,4.40
2019-01-17T03:25:17.221Z,4.40
2019-01-17T03:27:45.997Z,4.40
2019-01-17T03:30:17.137Z,4.40
2019-01-17T03:32:45.986Z,4.40
2019-01-17T03:35:14.932Z,4.40
2019-01-17T03:37:43.983Z,4.40
2019-01-17T03:40:15.963Z,4.30
2019-01-17T03:42:44.744Z,4.30
2019-01-17T03:45:14.027Z,4.30
2019-01-17T03:47:42.917Z,4.20
2019-01-17T03:50:13.957Z,4.20
2019-01-17T03:52:43.416Z,4.20
2019-01-17T03:55:14.605Z,4.20
2019-01-17T03:57:43.424Z,4.10
2019-01-17T04:00:17.693Z,4.10
2019-01-17T04:02:46.886Z,4.10
2019-01-17T04:05:15.863Z,4.10
2019-01-17T04:07:44.822Z,4.10
2019-01-17T04:10:14.366Z,4.10
2019-01-17T04:12:43.069Z,4.10
2019-01-17T04:15:12.672Z,4.10
2019-01-17T04:17:41.737Z,4.20
2019-01-17T04:20:14.033Z,4.20
2019-01-17T04:22:42.940Z,4.20
2019-01-17T04:25:11.807Z,4.20
2019-01-17T04:27:40.651Z,4.20
2019-01-17T04:30:15.655Z,4.30
2019-01-17T04:32:44.793Z,4.30
2019-01-17T04:35:13.573Z,4.30
2019-01-17T04:37:42.673Z,4.40
2019-01-17T04:40:11.909Z,4.40
2019-01-17T04:42:40.865Z,4.40
2019-01-17T04:45:12.446Z,4.40
2019-01-17T04:47:41.522Z,4.40
2019-01-17T04:50:12.075Z,4.40
2019-01-17T04:52:41.085Z,4.40
2019-01-17T04:55:10.658Z,4.40
2019-01-17T04:57:39.708Z,4.40
2019-01-17T05:00:12.557Z,4.40
2019-01-17T05:02:41.340Z,4.40
2019-01-17T05:05:10.562Z,4.40
2019-01-17T05:07:39.281Z,4.40
2019-01-17T05:10:08.637Z,4.40
2019-01-17T05:12:37.729Z,4.40
2019-01-17T05:15:07.984Z,4.40
2019-01-17T05:17:37.248Z,4.40
2019-01-17T05:20:08.185Z,4.40
2019-01-17T05:22:36.961Z,4.40
2019-01-17T05:25:12.388Z,4.40
2019-01-17T05:27:39.084Z,4.50
2019-01-17T05:30:11.018Z,4.50
2019-01-17T05:32:40.062Z,4.50
2019-01-17T05:35:08.947Z,4.50
2019-01-17T05:37:37.995Z,4.50
2019-01-17T05:40:09.248Z,4.50
2019-01-17T05:42:37.947Z,4.50
2019-01-17T05:45:07.842Z,4.50
2019-01-17T05:47:36.793Z,4.50
2019-01-17T05:50:06.667Z,4.50
2019-01-17T05:52:35.789Z,4.60
2019-01-17T05:55:05.234Z,4.60
2019-01-17T05:57:34.281Z,4.60
2019-01-17T06:00:03.181Z,4.60
2019-01-17T06:02:32.194Z,4.60
2019-01-17T06:05:00.942Z,4.60
2019-01-17T06:07:29.696Z,4.60
2019-01-17T06:09:58.456Z,4.70
2019-01-17T06:12:27.434Z,4.70
2019-01-17T06:14:56.145Z,4.70
2019-01-17T06:17:25.404Z,4.80
2019-01-17T06:19:54.641Z,4.70
2019-01-17T06:22:23.621Z,4.80
2019-01-17T06:24:52.345Z,4.80
2019-01-17T06:27:21.066Z,4.80
2019-01-17T06:29:50.121Z,4.80
2019-01-17T06:32:18.849Z,4.80
2019-01-17T06:34:47.565Z,4.80
2019-01-17T06:37:16.833Z,4.80
2019-01-17T06:39:45.528Z,4.80
2019-01-17T06:42:14.221Z,4.70
2019-01-17T06:44:43.209Z,4.70
2019-01-17T06:47:12.001Z,4.80
2019-01-17T06:49:40.749Z,4.70
2019-01-17T06:52:09.790Z,4.70
2019-01-17T06:54:38.488Z,4.70
2019-01-17T06:57:07.180Z,4.70
2019-01-17T06:59:36.002Z,4.70
2019-01-17T07:02:04.955Z,4.70
2019-01-17T07:04:33.785Z,4.70
2019-01-17T07:07:03.060Z,4.70
2019-01-17T07:09:32.044Z,4.70
2019-01-17T07:12:01.033Z,4.70
2019-01-17T07:14:29.995Z,4.70
2019-01-17T07:16:58.947Z,4.70
2019-01-17T07:19:27.914Z,4.70
2019-01-17T07:21:56.620Z,4.70
2019-01-17T07:24:25.342Z,4.70
2019-01-17T07:26:54.337Z,4.70
2019-01-17T07:29:23.169Z,4.70
2019-01-17T07:31:52.150Z,4.70
2019-01-17T07:34:20.881Z,4.70
2019-01-17T07:36:49.693Z,4.70
2019-01-17T07:39:18.462Z,4.70
2019-01-17T07:41:47.426Z,4.70
2019-01-17T07:44:16.227Z,4.70
2019-01-17T07:46:44.950Z,4.70
2019-01-17T07:49:14.694Z,4.70
2019-01-17T07:51:43.562Z,4.70
2019-01-17T07:54:12.373Z,4.70
2019-01-17T07:56:41.394Z,4.70
2019-01-17T07:59:10.128Z,4.70
2019-01-17T08:01:39.145Z,4.70
2019-01-17T08:04:08.932Z,4.70
2019-01-17T08:06:37.654Z,4.70
2019-01-17T08:09:25.761Z,4.70
2019-01-17T08:11:57.942Z,4.70
2019-01-17T08:14:46.145Z,4.70
2019-01-17T08:17:14.934Z,4.70
2019-01-17T08:19:44.140Z,4.70
2019-01-17T08:22:13.102Z,4.70
2019-01-17T08:24:42.270Z,4.70
2019-01-17T08:27:11.091Z,4.80
2019-01-17T08:29:40.034Z,4.80
2019-01-17T08:32:09.015Z,4.80
2019-01-17T08:34:37.723Z,4.80
2019-01-17T08:37:06.864Z,4.80
2019-01-17T08:39:35.887Z,4.80
2019-01-17T08:42:04.749Z,4.80
2019-01-17T08:44:33.729Z,4.80
2019-01-17T08:47:02.721Z,4.80
2019-01-17T08:49:31.761Z,4.80
2019-01-17T08:52:00.810Z,4.70
2019-01-17T08:54:29.519Z,4.80
2019-01-17T08:56:58.247Z,4.80
2019-01-17T08:59:26.981Z,4.90
2019-01-17T09:01:55.695Z,4.80
2019-01-17T09:04:24.457Z,4.90
2019-01-17T09:06:53.177Z,4.90
2019-01-17T09:09:21.900Z,4.90
2019-01-17T09:11:50.708Z,4.90
2019-01-17T09:14:19.764Z,4.90
2019-01-17T09:16:48.504Z,4.90
2019-01-17T09:19:17.286Z,4.90
2019-01-17T09:21:46.029Z,5.00
2019-01-17T09:24:14.738Z,5.00
2019-01-17T09:26:43.465Z,5.00
2019-01-17T09:29:12.180Z,5.00
2019-01-17T09:31:40.950Z,5.00
2019-01-17T09:34:09.664Z,5.00
2019-01-17T09:36:38.477Z,5.00
2019-01-17T09:39:08.905Z,5.00
2019-01-17T09:41:37.698Z,5.00
2019-01-17T09:44:06.515Z,5.00
2019-01-17T09:46:35.224Z,5.00
2019-01-17T09:49:04.250Z,5.10
2019-01-17T09:51:33.305Z,5.00
2019-01-17T09:54:02.084Z,5.10
2019-01-17T09:56:31.173Z,5.10
2019-01-17T09:59:02.992Z,5.10
2019-01-17T10:01:31.696Z,5.10
2019-01-17T10:04:00.501Z,5.10
2019-01-17T10:06:29.243Z,5.10
2019-01-17T10:08:57.968Z,5.20
2019-01-17T10:11:26.905Z,5.20
2019-01-17T10:13:55.909Z,5.30
2019-01-17T10:16:45.229Z,5.30
2019-01-17T10:19:49.271Z,5.30
2019-01-17T10:22:36.564Z,5.40
2019-01-17T10:25:44.067Z,5.40
2019-01-17T10:28:51.750Z,5.60
2019-01-17T10:31:40.433Z,5.70
2019-01-17T10:34:34.106Z,5.70
2019-01-17T10:38:08.353Z,5.80
2019-01-17T10:41:28.752Z,5.80
2019-01-17T10:44:27.876Z,5.80
2019-01-17T10:48:00.169Z,5.70
2019-01-17T10:50:51.765Z,5.70
2019-01-17T10:53:48.884Z,5.80
2019-01-17T10:56:52.911Z,5.80
2019-01-17T10:59:36.173Z,5.70
2019-01-17T11:02:42.513Z,5.70
2019-01-17T11:05:36.248Z,5.70
2019-01-17T11:08:29.667Z,5.70
2019-01-17T11:11:44.788Z,5.80
2019-01-17T11:14:40.273Z,5.80
2019-01-17T11:17:56.329Z,5.80
2019-01-17T11:20:52.817Z,5.90
2019-01-17T11:23:33.737Z,6.00
2019-01-17T11:26:34.303Z,6.10
2019-01-17T11:29:44.077Z,6.20
2019-01-17T11:32:41.912Z,6.20
2019-01-17T11:35:59.113Z,6.20
2019-01-17T11:39:04.895Z,6.20
2019-01-17T11:42:13.758Z,6.10
2019-01-17T11:45:30.220Z,6.10
2019-01-17T11:48:23.954Z,6.30
2019-01-17T11:51:25.965Z,6.40
2019-01-17T11:54:13.149Z,6.40
2019-01-17T11:57:35.571Z,6.40
2019-01-17T12:00:52.609Z,6.30
2019-01-17T12:04:10.541Z,6.30
2019-01-17T12:06:39.236Z,6.20
2019-01-17T12:09:08.221Z,6.10
2019-01-17T12:11:37.245Z,6.10
2019-01-17T12:14:06.120Z,6.00
2019-01-17T12:16:35.182Z,5.90
2019-01-17T12:19:04.294Z,5.80
2019-01-17T12:21:33.672Z,5.80
2019-01-17T12:24:02.457Z,5.70
2019-01-17T12:26:31.727Z,5.70
2019-01-17T12:29:00.589Z,5.50
2019-01-17T12:31:33.852Z,5.40
2019-01-17T12:34:00.254Z,5.30
2019-01-17T12:36:29.461Z,5.20
2019-01-17T12:38:58.321Z,5.10
2019-01-17T12:41:27.162Z,5.00
2019-01-17T12:43:56.144Z,4.80
2019-01-17T12:46:24.993Z,4.50
2019-01-17T12:48:54.113Z,4.30
2019-01-17T12:51:23.365Z,4.00
2019-01-17T12:53:52.277Z,3.80
2019-01-17T12:56:21.043Z,3.70
2019-01-17T12:58:49.994Z,3.50
2019-01-17T13:01:19.122Z,3.50
2019-01-17T13:03:49.581Z,3.30
2019-01-17T13:06:18.817Z,3.30
2019-01-17T13:08:47.686Z,3.20
2019-01-17T13:11:17.112Z,3.00
2019-01-17T13:13:46.086Z,2.90
2019-01-17T13:16:14.809Z,2.80
2019-01-17T13:18:43.838Z,2.70
2019-01-17T13:21:12.544Z,2.60
2019-01-17T13:23:41.609Z,2.50
2019-01-17T13:26:10.613Z,2.40
2019-01-17T13:28:39.545Z,2.40
2019-01-17T13:31:08.697Z,2.40
2019-01-17T13:33:40.839Z,2.20
2019-01-17T13:36:13.392Z,2.20
2019-01-17T13:38:42.336Z,2.10
2019-01-17T13:41:11.240Z,2.00
2019-01-17T13:43:40.426Z,2.00
2019-01-17T13:46:09.838Z,2.00
2019-01-17T13:48:38.914Z,2.00
2019-01-17T13:51:08.116Z,2.00
2019-01-17T13:53:37.293Z,1.90
2019-01-17T13:56:07.641Z,1.80
2019-01-17T13:58:36.378Z,1.80
2019-01-17T14:01:05.485Z,1.80
2019-01-17T14:03:37.042Z,1.80
2019-01-17T14:06:06.066Z,1.80
2019-01-17T14:08:35.025Z,1.80
2019-01-17T14:11:04.301Z,1.80
2019-01-17T14:13:33.366Z,1.80
2019-01-17T14:16:02.258Z,1.80
2019-01-17T14:18:31.053Z,1.80
2019-01-17T14:20:59.741Z,1.80
2019-01-17T14:23:28.745Z,1.80
2019-01-17T14:25:57.764Z,1.80
2019-01-17T14:28:26.802Z,1.80
2019-01-17T14:30:56.013Z,1.80
2019-01-17T14:33:25.137Z,1.80
2019-01-17T14:35:55.268Z,1.70
2019-01-17T14:38:24.873Z,1.70
2019-01-17T14:40:53.950Z,1.80
2019-01-17T14:43:22.660Z,1.80
2019-01-17T14:45:51.545Z,1.80
2019-01-17T14:48:20.533Z,1.90
2019-01-17T14:50:49.329Z,1.90
2019-01-17T14:53:18.368Z,1.80
2019-01-17T14:55:47.142Z,1.80
2019-01-17T14:58:16.041Z,1.80
2019-01-17T15:00:44.820Z,1.80
2019-01-17T15:03:14.065Z,1.90
2019-01-17T15:05:43.028Z,1.90
2019-01-17T15:08:12.019Z,1.90
2019-01-17T15:10:41.963Z,1.90
2019-01-17T15:13:11.377Z,1.90
2019-01-17T15:15:40.113Z,1.90
2019-01-17T15:18:09.406Z,2.00
2019-01-17T15:20:38.150Z,1.90
2019-01-17T15:23:08.749Z,2.00
2019-01-17T15:25:38.894Z,2.00
2019-01-17T15:28:08.153Z,2.00
2019-01-17T15:30:37.195Z,2.00
2019-01-17T15:33:06.069Z,2.10
2019-01-17T15:35:34.820Z,2.10
2019-01-17T15:38:03.957Z,2.10
2019-01-17T15:40:32.742Z,2.20
2019-01-17T15:43:01.973Z,2.20
2019-01-17T15:45:31.089Z,2.20
2019-01-17T15:48:00.326Z,2.20
2019-01-17T15:50:29.510Z,2.20
2019-01-17T15:52:59.133Z,2.20
2019-01-17T15:55:27.967Z,2.20
2019-01-17T15:57:56.699Z,2.20
2019-01-17T16:00:30.810Z,2.20
2019-01-17T16:02:59.845Z,2.20
2019-01-17T16:05:29.172Z,2.20
2019-01-17T16:07:58.061Z,2.30
2019-01-17T16:10:26.796Z,2.20
2019-01-17T16:12:55.711Z,2.20
2019-01-17T16:15:26.537Z,2.20
2019-01-17T16:17:55.397Z,2.20
2019-01-17T16:20:24.529Z,2.20
2019-01-17T16:22:53.553Z,2.20
2019-01-17T16:25:23.674Z,2.20
2019-01-17T16:27:53.161Z,2.20
2019-01-17T16:30:24.869Z,2.30
2019-01-17T16:32:53.696Z,2.30
2019-01-17T16:35:22.786Z,2.30
2019-01-17T16:37:51.592Z,2.30
2019-01-17T16:40:20.688Z,2.20
2019-01-17T16:42:49.663Z,2.30
2019-01-17T16:45:19.266Z,2.20
2019-01-17T16:47:48.090Z,2.20
2019-01-17T16:50:19.057Z,2.20
2019-01-17T16:52:48.094Z,2.20
2019-01-17T16:55:17.104Z,2.10
2019-01-17T16:57:49.121Z,2.00
2019-01-17T17:00:25.710Z,1.90
2019-01-17T17:02:54.694Z,1.80
2019-01-17T17:05:23.598Z,1.70
2019-01-17T17:07:52.986Z,1.70
2019-01-17T17:10:22.395Z,1.70
2019-01-17T17:12:51.321Z,1.60
2019-01-17T17:15:20.226Z,1.60
2019-01-17T17:17:49.027Z,1.50
2019-01-17T17:20:19.257Z,1.60
2019-01-17T17:22:48.269Z,1.50
2019-01-17T17:25:17.270Z,1.50
2019-01-17T17:27:46.317Z,1.60
2019-01-17T17:30:18.828Z,1.60
2019-01-17T17:32:47.973Z,1.70
2019-01-17T17:35:16.852Z,1.70
2019-01-17T17:37:45.958Z,1.80
2019-01-17T17:40:26.407Z,1.80
2019-01-17T17:42:56.762Z,1.80
2019-01-17T17:45:29.505Z,1.80
2019-01-17T17:48:00.378Z,1.80
2019-01-17T17:50:29.216Z,1.80
2019-01-17T17:52:58.176Z,1.80
2019-01-17T17:55:27.321Z,1.80
2019-01-17T17:58:01.947Z,1.70
2019-01-17T18:00:33.040Z,1.70
2019-01-17T18:03:02.350Z,1.70
2019-01-17T18:05:31.986Z,1.70
2019-01-17T18:08:00.948Z,1.70
2019-01-17T18:10:29.796Z,1.80
2019-01-17T18:12:59.112Z,1.80
2019-01-17T18:15:28.521Z,1.80
2019-01-17T18:17:57.719Z,1.80
2019-01-17T18:20:26.974Z,1.80
2019-01-17T18:22:55.983Z,1.80
2019-01-17T18:25:24.740Z,1.80
2019-01-17T18:27:53.652Z,1.80
2019-01-17T18:30:22.871Z,1.70
2019-01-17T18:32:52.838Z,1.70
2019-01-17T18:35:21.672Z,1.70
2019-01-17T18:37:50.962Z,1.70
2019-01-17T18:40:19.815Z,1.70
2019-01-17T18:42:48.712Z,1.70
2019-01-17T18:45:19.464Z,1.70
2019-01-17T18:47:48.301Z,1.70
2019-01-17T18:50:19.715Z,1.70
2019-01-17T18:52:48.553Z,1.70
2019-01-17T18:55:17.728Z,1.70
2019-01-17T18:57:47.893Z,1.70
2019-01-17T19:00:23.770Z,1.70
2019-01-17T19:02:52.805Z,1.70
2019-01-17T19:05:22.337Z,1.70
2019-01-17T19:07:51.201Z,1.70
2019-01-17T19:10:20.255Z,1.70
2019-01-17T19:12:49.469Z,1.70
2019-01-17T19:15:21.348Z,1.70
2019-01-17T19:17:50.997Z,1.70
2019-01-17T19:20:21.531Z,1.70
2019-01-17T19:22:50.597Z,1.70
2019-01-17T19:25:21.200Z,1.70
2019-01-17T19:27:52.036Z,1.70
2019-01-17T19:30:26.428Z,1.60
2019-01-17T19:32:57.377Z,1.50
2019-01-17T19:35:26.593Z,1.40
2019-01-17T19:37:58.698Z,1.30
2019-01-17T19:40:29.341Z,1.30
2019-01-17T19:43:02.341Z,1.20
2019-01-17T19:45:35.581Z,1.30
2019-01-17T19:48:04.409Z,1.30
2019-01-17T19:50:39.602Z,1.30
2019-01-17T19:53:10.050Z,1.30
2019-01-17T19:55:38.964Z,1.30
2019-01-17T19:58:09.781Z,1.40
2019-01-17T20:00:38.594Z,1.50
2019-01-17T20:03:07.520Z,1.50
2019-01-17T20:05:36.784Z,1.40
2019-01-17T20:08:05.964Z,1.40
2019-01-17T20:10:36.436Z,1.40
2019-01-17T20:13:06.205Z,1.40
2019-01-17T20:15:35.340Z,1.40
2019-01-17T20:18:04.765Z,1.40
2019-01-17T20:20:33.951Z,1.30
2019-01-17T20:23:02.999Z,1.30
2019-01-17T20:25:31.824Z,1.30
2019-01-17T20:28:00.915Z,1.30
2019-01-17T20:30:32.663Z,1.30
2019-01-17T20:33:05.659Z,1.30
2019-01-17T20:35:35.319Z,1.40
2019-01-17T20:38:04.774Z,1.40
2019-01-17T20:40:37.420Z,1.40
2019-01-17T20:43:06.374Z,1.40
2019-01-17T20:45:35.513Z,1.50
2019-01-17T20:48:07.146Z,1.50
2019-01-17T20:50:36.047Z,1.40
2019-01-17T20:53:05.282Z,1.40
2019-01-17T20:55:36.110Z,1.40
2019-01-17T20:58:05.084Z,1.50
2019-01-17T21:00:55.602Z,1.50
2019-01-17T21:03:24.754Z,1.50
2019-01-17T21:05:53.792Z,1.50
2019-01-17T21:08:22.665Z,1.50
2019-01-17T21:10:54.369Z,1.50
2019-01-17T21:13:23.643Z,1.50
2019-01-17T21:15:52.689Z,1.50
2019-01-17T21:18:21.698Z,1.50
2019-01-17T21:20:51.687Z,1.50
2019-01-17T21:23:20.843Z,1.50
2019-01-17T21:25:49.677Z,1.50
2019-01-17T21:28:18.590Z,1.50
2019-01-17T21:30:47.529Z,1.50
2019-01-17T21:33:16.273Z,1.40
2019-01-17T21:35:47.169Z,1.40
2019-01-17T21:38:16.167Z,1.40
2019-01-17T21:40:45.029Z,1.40
2019-01-17T21:43:13.851Z,1.30
2019-01-17T21:45:42.796Z,1.30
2019-01-17T21:48:11.770Z,1.30
2019-01-17T21:50:40.722Z,1.30
2019-01-17T21:53:09.457Z,1.30
2019-01-17T21:55:38.248Z,1.30
2019-01-17T21:58:07.431Z,1.30
2019-01-17T22:00:36.458Z,1.30
2019-01-17T22:03:05.725Z,1.30
2019-01-17T22:05:34.468Z,1.20
2019-01-17T22:08:03.457Z,1.20
2019-01-17T22:10:32.440Z,1.20
2019-01-17T22:13:01.578Z,1.20
2019-01-17T22:15:30.641Z,1.20
2019-01-17T22:17:59.725Z,1.20
2019-01-17T22:20:28.572Z,1.20
2019-01-17T22:22:57.551Z,1.20
2019-01-17T22:25:29.973Z,1.20
2019-01-17T22:28:01.175Z,1.10
2019-01-17T22:30:30.051Z,1.10
2019-01-17T22:32:59.374Z,1.10
2019-01-17T22:35:28.340Z,1.10
2019-01-17T22:37:59.500Z,1.10
2019-01-17T22:40:28.472Z,1.10
2019-01-17T22:42:57.444Z,1.10
2019-01-17T22:45:28.487Z,1.10
2019-01-17T22:47:57.440Z,1.20
2019-01-17T22:50:26.722Z,1.10
2019-01-17T22:52:55.469Z,1.20
2019-01-17T22:55:24.260Z,1.20
2019-01-17T22:57:53.094Z,1.20
2019-01-17T23:00:50.094Z,1.10
2019-01-17T23:03:25.705Z,1.10
2019-01-17T23:05:55.842Z,1.10
2019-01-17T23:08:24.696Z,1.10
2019-01-17T23:10:53.412Z,1.10
2019-01-17T23:13:22.466Z,1.10
2019-01-17T23:15:51.528Z,1.10
2019-01-17T23:18:20.257Z,1.10
2019-01-17T23:20:48.993Z,1.20
2019-01-17T23:23:17.705Z,1.20
2019-01-17T23:25:46.453Z,1.20
2019-01-17T23:28:15.175Z,1.20
2019-01-17T23:30:44.257Z,1.20
2019-01-17T23:33:13.052Z,1.20
2019-01-17T23:35:42.028Z,1.20
2019-01-17T23:38:10.801Z,1.20
2019-01-17T23:40:39.552Z,1.20
2019-01-17T23:43:08.497Z,1.20
2019-01-17T23:45:37.462Z,1.20
2019-01-17T23:48:06.241Z,1.20
2019-01-17T23:50:34.987Z,1.20
2019-01-17T23:53:04.573Z,1.20
2019-01-17T23:55:33.294Z,1.10
2019-01-17T23:58:02.093Z,1.20
